Pharoah, Oklahoma
Current Conditions -  °F | °C
As of 5:55 AM on Monday 22 Dec 2014 (Local Time) from KOKM Reporting Station
Haze Haze  
Wind Chill: 42°   Ceiling: 400
Heat Index: 47°   Visibility: 5mi
Dew Point: 46°   Wind: 9mph
Humidity: 99%   Direction: 160°SSE
Pressure: 29.58"   Gusts: NA
Location:  35.3761°N, 96.1179°W
Report Text: KOKM 221155Z AUTO 16008KT 5SM BR OVC004 08/08 A2958 RMK AO2 T00810080 10081 20075
Loading
Personal Weather Stations






























Interactive Weather Map New forecast layout! Learn more

10-Day Weather Forecast

Advertisements
Track Severe Weather on mobile